sensor_id;sensor_type;location;lat;lon;timestamp;P1;durP1;ratioP1;P2;durP2;ratioP2
73575;SDS011;61859;49.204;8.140;2024-01-10T00:01:33;12.53;;;5.43;;
73575;SDS011;61859;49.204;8.140;2024-01-10T00:03:58;11.53;;;6.43;;
73575;SDS011;61859;49.204;8.140;2024-01-10T00:06:24;8.30;;;5.17;;
73575;SDS011;61859;49.204;8.140;2024-01-10T00:08:49;9.50;;;5.40;;
73575;SDS011;61859;49.204;8.140;2024-01-10T00:11:15;11.67;;;7.00;;
73575;SDS011;61859;49.204;8.140;2024-01-10T00:13:41;10.30;;;5.83;;
73575;SDS011;61859;49.204;8.140;2024-01-10T00:16:06;9.50;;;5.27;;
73575;SDS011;61859;49.204;8.140;2024-01-10T00:18:32;11.77;;;6.13;;
73575;SDS011;61859;49.204;8.140;2024-01-10T00:20:58;9.87;;;6.20;;
73575;SDS011;61859;49.204;8.140;2024-01-10T00:23:24;8.20;;;5.50;;
73575;SDS011;61859;49.204;8.140;2024-01-10T00:25:50;9.07;;;5.10;;
73575;SDS011;61859;49.204;8.140;2024-01-10T00:28:15;9.00;;;5.80;;
73575;SDS011;61859;49.204;8.140;2024-01-10T00:30:44;8.70;;;5.53;;
73575;SDS011;61859;49.204;8.140;2024-01-10T00:33:12;9.67;;;5.50;;
73575;SDS011;61859;49.204;8.140;2024-01-10T00:35:38;7.87;;;4.97;;
73575;SDS011;61859;49.204;8.140;2024-01-10T00:38:03;12.67;;;5.90;;
73575;SDS011;61859;49.204;8.140;2024-01-10T00:40:29;10.40;;;6.10;;
73575;SDS011;61859;49.204;8.140;2024-01-10T00:42:54;9.00;;;5.97;;
73575;SDS011;61859;49.204;8.140;2024-01-10T00:45:20;8.87;;;5.47;;
73575;SDS011;61859;49.204;8.140;2024-01-10T00:47:46;10.17;;;5.47;;
73575;SDS011;61859;49.204;8.140;2024-01-10T00:50:13;11.40;;;5.80;;
73575;SDS011;61859;49.204;8.140;2024-01-10T00:52:39;10.10;;;5.03;;
73575;SDS011;61859;49.204;8.140;2024-01-10T00:55:04;10.00;;;6.10;;
73575;SDS011;61859;49.204;8.140;2024-01-10T00:57:30;8.60;;;5.30;;
73575;SDS011;61859;49.204;8.140;2024-01-10T00:59:55;9.77;;;5.73;;
73575;SDS011;61859;49.204;8.140;2024-01-10T01:02:21;10.50;;;5.57;;
73575;SDS011;61859;49.204;8.140;2024-01-10T01:04:48;11.03;;;6.37;;
73575;SDS011;61859;49.204;8.140;2024-01-10T01:07:13;13.47;;;6.00;;
73575;SDS011;61859;49.204;8.140;2024-01-10T01:09:39;11.93;;;5.37;;
73575;SDS011;61859;49.204;8.140;2024-01-10T01:12:04;8.70;;;5.30;;
73575;SDS011;61859;49.204;8.140;2024-01-10T01:14:30;12.20;;;6.60;;
73575;SDS011;61859;49.204;8.140;2024-01-10T01:16:55;11.77;;;6.33;;
73575;SDS011;61859;49.204;8.140;2024-01-10T01:19:21;11.80;;;6.47;;
73575;SDS011;61859;49.204;8.140;2024-01-10T01:21:47;12.73;;;6.77;;
73575;SDS011;61859;49.204;8.140;2024-01-10T01:24:12;10.40;;;5.70;;
73575;SDS011;61859;49.204;8.140;2024-01-10T01:26:38;10.83;;;6.20;;
73575;SDS011;61859;49.204;8.140;2024-01-10T01:29:03;11.83;;;5.83;;
73575;SDS011;61859;49.204;8.140;2024-01-10T01:31:29;12.57;;;5.93;;
73575;SDS011;61859;49.204;8.140;2024-01-10T01:33:55;11.77;;;6.37;;
73575;SDS011;61859;49.204;8.140;2024-01-10T01:36:20;9.67;;;5.47;;
73575;SDS011;61859;49.204;8.140;2024-01-10T01:38:46;11.23;;;6.23;;
73575;SDS011;61859;49.204;8.140;2024-01-10T01:41:11;12.60;;;6.57;;
73575;SDS011;61859;49.204;8.140;2024-01-10T01:43:39;12.77;;;6.10;;
73575;SDS011;61859;49.204;8.140;2024-01-10T01:46:05;11.10;;;6.20;;
73575;SDS011;61859;49.204;8.140;2024-01-10T01:48:30;11.47;;;6.77;;
73575;SDS011;61859;49.204;8.140;2024-01-10T01:50:56;11.47;;;6.37;;
73575;SDS011;61859;49.204;8.140;2024-01-10T01:53:25;13.40;;;6.20;;
73575;SDS011;61859;49.204;8.140;2024-01-10T01:55:51;11.33;;;6.80;;
73575;SDS011;61859;49.204;8.140;2024-01-10T01:58:18;12.33;;;6.73;;
73575;SDS011;61859;49.204;8.140;2024-01-10T02:00:45;13.10;;;6.60;;
73575;SDS011;61859;49.204;8.140;2024-01-10T02:03:11;13.83;;;7.20;;
73575;SDS011;61859;49.204;8.140;2024-01-10T02:05:37;12.93;;;6.80;;
73575;SDS011;61859;49.204;8.140;2024-01-10T02:08:02;11.67;;;5.93;;
73575;SDS011;61859;49.204;8.140;2024-01-10T02:10:28;13.23;;;6.77;;
73575;SDS011;61859;49.204;8.140;2024-01-10T02:12:54;10.60;;;5.83;;
73575;SDS011;61859;49.204;8.140;2024-01-10T02:15:20;13.90;;;7.10;;
73575;SDS011;61859;49.204;8.140;2024-01-10T02:17:45;13.90;;;6.43;;
73575;SDS011;61859;49.204;8.140;2024-01-10T02:20:11;13.07;;;6.33;;
73575;SDS011;61859;49.204;8.140;2024-01-10T02:22:39;12.23;;;6.60;;
73575;SDS011;61859;49.204;8.140;2024-01-10T02:25:05;13.33;;;6.67;;
73575;SDS011;61859;49.204;8.140;2024-01-10T02:27:35;9.53;;;6.40;;
73575;SDS011;61859;49.204;8.140;2024-01-10T02:30:02;12.33;;;6.90;;
73575;SDS011;61859;49.204;8.140;2024-01-10T02:32:29;13.37;;;6.57;;
73575;SDS011;61859;49.204;8.140;2024-01-10T02:34:55;10.33;;;5.97;;
73575;SDS011;61859;49.204;8.140;2024-01-10T02:37:20;10.57;;;5.50;;
73575;SDS011;61859;49.204;8.140;2024-01-10T02:39:46;10.70;;;6.43;;
73575;SDS011;61859;49.204;8.140;2024-01-10T02:42:11;9.27;;;5.77;;
73575;SDS011;61859;49.204;8.140;2024-01-10T02:44:37;13.10;;;6.50;;
73575;SDS011;61859;49.204;8.140;2024-01-10T02:47:02;14.47;;;6.73;;
73575;SDS011;61859;49.204;8.140;2024-01-10T02:49:28;9.63;;;6.50;;
73575;SDS011;61859;49.204;8.140;2024-01-10T02:51:53;10.20;;;6.23;;
73575;SDS011;61859;49.204;8.140;2024-01-10T02:54:19;10.63;;;6.10;;
73575;SDS011;61859;49.204;8.140;2024-01-10T02:56:45;12.33;;;6.27;;
73575;SDS011;61859;49.204;8.140;2024-01-10T02:59:10;10.97;;;6.70;;
73575;SDS011;61859;49.204;8.140;2024-01-10T03:01:36;14.10;;;6.73;;
73575;SDS011;61859;49.204;8.140;2024-01-10T03:04:01;11.83;;;6.73;;
73575;SDS011;61859;49.204;8.140;2024-01-10T03:06:27;12.67;;;6.33;;
73575;SDS011;61859;49.204;8.140;2024-01-10T03:08:54;12.73;;;6.73;;
73575;SDS011;61859;49.204;8.140;2024-01-10T03:11:19;12.53;;;6.80;;
73575;SDS011;61859;49.204;8.140;2024-01-10T03:13:46;9.37;;;6.53;;
73575;SDS011;61859;49.204;8.140;2024-01-10T03:16:12;14.17;;;6.83;;
73575;SDS011;61859;49.204;8.140;2024-01-10T03:18:38;13.43;;;7.03;;
73575;SDS011;61859;49.204;8.140;2024-01-10T03:21:04;9.73;;;5.80;;
73575;SDS011;61859;49.204;8.140;2024-01-10T03:23:30;12.80;;;7.27;;
73575;SDS011;61859;49.204;8.140;2024-01-10T03:25:55;18.57;;;7.50;;
73575;SDS011;61859;49.204;8.140;2024-01-10T03:28:22;10.50;;;6.17;;
73575;SDS011;61859;49.204;8.140;2024-01-10T03:30:48;13.70;;;6.87;;
73575;SDS011;61859;49.204;8.140;2024-01-10T03:33:13;13.97;;;6.83;;
73575;SDS011;61859;49.204;8.140;2024-01-10T03:35:40;11.47;;;6.60;;
73575;SDS011;61859;49.204;8.140;2024-01-10T03:38:09;12.67;;;7.00;;
73575;SDS011;61859;49.204;8.140;2024-01-10T03:40:34;13.90;;;7.80;;
73575;SDS011;61859;49.204;8.140;2024-01-10T03:43:00;16.20;;;7.53;;
73575;SDS011;61859;49.204;8.140;2024-01-10T03:45:25;12.23;;;6.90;;
73575;SDS011;61859;49.204;8.140;2024-01-10T03:47:51;10.17;;;7.03;;
73575;SDS011;61859;49.204;8.140;2024-01-10T03:50:20;13.93;;;6.80;;
73575;SDS011;61859;49.204;8.140;2024-01-10T03:52:45;11.97;;;6.80;;
73575;SDS011;61859;49.204;8.140;2024-01-10T03:55:12;13.30;;;7.37;;
73575;SDS011;61859;49.204;8.140;2024-01-10T03:57:38;11.50;;;7.13;;
73575;SDS011;61859;49.204;8.140;2024-01-10T04:00:04;12.27;;;6.73;;
73575;SDS011;61859;49.204;8.140;2024-01-10T04:02:31;13.10;;;7.43;;
73575;SDS011;61859;49.204;8.140;2024-01-10T04:04:57;12.50;;;6.33;;
73575;SDS011;61859;49.204;8.140;2024-01-10T04:07:22;11.97;;;6.60;;
73575;SDS011;61859;49.204;8.140;2024-01-10T04:09:48;11.53;;;7.30;;
73575;SDS011;61859;49.204;8.140;2024-01-10T04:12:13;14.27;;;7.23;;
73575;SDS011;61859;49.204;8.140;2024-01-10T04:14:39;13.57;;;7.27;;
73575;SDS011;61859;49.204;8.140;2024-01-10T04:17:05;15.23;;;7.57;;
73575;SDS011;61859;49.204;8.140;2024-01-10T04:19:31;13.93;;;7.27;;
73575;SDS011;61859;49.204;8.140;2024-01-10T04:21:57;14.77;;;7.37;;
73575;SDS011;61859;49.204;8.140;2024-01-10T04:24:23;16.03;;;7.33;;
73575;SDS011;61859;49.204;8.140;2024-01-10T04:26:49;9.57;;;6.30;;
73575;SDS011;61859;49.204;8.140;2024-01-10T04:29:14;13.00;;;7.03;;
73575;SDS011;61859;49.204;8.140;2024-01-10T04:31:40;13.77;;;6.93;;
73575;SDS011;61859;49.204;8.140;2024-01-10T04:34:05;15.70;;;8.10;;
73575;SDS011;61859;49.204;8.140;2024-01-10T04:36:31;13.97;;;6.40;;
73575;SDS011;61859;49.204;8.140;2024-01-10T04:38:56;16.57;;;7.20;;
73575;SDS011;61859;49.204;8.140;2024-01-10T04:41:22;12.93;;;6.87;;
73575;SDS011;61859;49.204;8.140;2024-01-10T04:43:48;13.03;;;7.47;;
73575;SDS011;61859;49.204;8.140;2024-01-10T04:46:13;14.40;;;7.97;;
73575;SDS011;61859;49.204;8.140;2024-01-10T04:48:39;13.43;;;6.97;;
73575;SDS011;61859;49.204;8.140;2024-01-10T04:51:04;15.70;;;7.10;;
73575;SDS011;61859;49.204;8.140;2024-01-10T04:53:30;14.13;;;7.50;;
73575;SDS011;61859;49.204;8.140;2024-01-10T04:55:55;14.27;;;8.03;;
73575;SDS011;61859;49.204;8.140;2024-01-10T04:58:21;13.63;;;7.60;;
73575;SDS011;61859;49.204;8.140;2024-01-10T05:00:47;13.67;;;6.17;;
73575;SDS011;61859;49.204;8.140;2024-01-10T05:03:12;15.80;;;7.63;;
73575;SDS011;61859;49.204;8.140;2024-01-10T05:05:38;15.03;;;7.30;;
73575;SDS011;61859;49.204;8.140;2024-01-10T05:08:04;14.97;;;7.10;;
73575;SDS011;61859;49.204;8.140;2024-01-10T05:10:30;13.07;;;7.03;;
73575;SDS011;61859;49.204;8.140;2024-01-10T05:12:55;15.43;;;7.20;;
73575;SDS011;61859;49.204;8.140;2024-01-10T05:15:21;14.40;;;7.43;;
73575;SDS011;61859;49.204;8.140;2024-01-10T05:17:46;14.13;;;7.27;;
73575;SDS011;61859;49.204;8.140;2024-01-10T05:20:12;11.93;;;7.47;;
73575;SDS011;61859;49.204;8.140;2024-01-10T05:22:39;14.53;;;8.17;;
73575;SDS011;61859;49.204;8.140;2024-01-10T05:25:05;11.20;;;6.50;;
73575;SDS011;61859;49.204;8.140;2024-01-10T05:27:31;13.47;;;7.50;;
73575;SDS011;61859;49.204;8.140;2024-01-10T05:29:57;11.47;;;6.90;;
73575;SDS011;61859;49.204;8.140;2024-01-10T05:32:24;13.63;;;7.83;;
73575;SDS011;61859;49.204;8.140;2024-01-10T05:34:50;15.30;;;8.00;;
73575;SDS011;61859;49.204;8.140;2024-01-10T05:37:15;13.17;;;7.00;;
73575;SDS011;61859;49.204;8.140;2024-01-10T05:39:41;13.97;;;8.10;;
73575;SDS011;61859;49.204;8.140;2024-01-10T05:42:06;15.13;;;8.47;;
73575;SDS011;61859;49.204;8.140;2024-01-10T05:44:32;14.63;;;7.73;;
73575;SDS011;61859;49.204;8.140;2024-01-10T05:46:57;12.33;;;7.13;;
73575;SDS011;61859;49.204;8.140;2024-01-10T05:49:24;12.33;;;6.90;;
73575;SDS011;61859;49.204;8.140;2024-01-10T05:51:50;13.97;;;8.13;;
73575;SDS011;61859;49.204;8.140;2024-01-10T05:54:16;15.53;;;8.47;;
73575;SDS011;61859;49.204;8.140;2024-01-10T05:56:43;14.80;;;8.30;;
73575;SDS011;61859;49.204;8.140;2024-01-10T05:59:08;14.87;;;7.77;;
73575;SDS011;61859;49.204;8.140;2024-01-10T06:01:36;14.23;;;7.80;;
73575;SDS011;61859;49.204;8.140;2024-01-10T06:04:03;17.60;;;8.90;;
73575;SDS011;61859;49.204;8.140;2024-01-10T06:06:29;14.60;;;8.33;;
73575;SDS011;61859;49.204;8.140;2024-01-10T06:08:55;14.87;;;8.20;;
73575;SDS011;61859;49.204;8.140;2024-01-10T06:11:20;18.73;;;8.80;;
73575;SDS011;61859;49.204;8.140;2024-01-10T06:13:46;15.93;;;8.87;;
73575;SDS011;61859;49.204;8.140;2024-01-10T06:16:11;15.70;;;8.07;;
73575;SDS011;61859;49.204;8.140;2024-01-10T06:18:38;14.97;;;9.17;;
73575;SDS011;61859;49.204;8.140;2024-01-10T06:21:04;16.97;;;8.07;;
73575;SDS011;61859;49.204;8.140;2024-01-10T06:23:29;15.53;;;8.10;;
73575;SDS011;61859;49.204;8.140;2024-01-10T06:25:55;12.90;;;7.77;;
73575;SDS011;61859;49.204;8.140;2024-01-10T06:28:21;15.60;;;7.87;;
73575;SDS011;61859;49.204;8.140;2024-01-10T06:30:46;18.10;;;9.03;;
73575;SDS011;61859;49.204;8.140;2024-01-10T06:33:12;19.23;;;10.07;;
73575;SDS011;61859;49.204;8.140;2024-01-10T06:35:37;15.13;;;7.87;;
73575;SDS011;61859;49.204;8.140;2024-01-10T06:38:03;18.93;;;9.53;;
73575;SDS011;61859;49.204;8.140;2024-01-10T06:40:29;18.73;;;8.50;;
73575;SDS011;61859;49.204;8.140;2024-01-10T06:42:55;14.03;;;8.77;;
73575;SDS011;61859;49.204;8.140;2024-01-10T06:45:20;15.83;;;8.80;;
73575;SDS011;61859;49.204;8.140;2024-01-10T06:47:46;18.97;;;9.20;;
73575;SDS011;61859;49.204;8.140;2024-01-10T06:50:11;17.67;;;9.00;;
73575;SDS011;61859;49.204;8.140;2024-01-10T06:52:37;16.90;;;8.67;;
73575;SDS011;61859;49.204;8.140;2024-01-10T06:55:02;16.30;;;8.70;;
73575;SDS011;61859;49.204;8.140;2024-01-10T06:57:29;15.53;;;8.90;;
73575;SDS011;61859;49.204;8.140;2024-01-10T06:59:55;14.80;;;8.30;;
73575;SDS011;61859;49.204;8.140;2024-01-10T07:02:20;20.20;;;9.17;;
73575;SDS011;61859;49.204;8.140;2024-01-10T07:04:45;15.70;;;9.67;;
73575;SDS011;61859;49.204;8.140;2024-01-10T07:07:13;17.80;;;8.93;;
73575;SDS011;61859;49.204;8.140;2024-01-10T07:09:39;14.00;;;7.97;;
73575;SDS011;61859;49.204;8.140;2024-01-10T07:12:06;16.97;;;8.97;;
73575;SDS011;61859;49.204;8.140;2024-01-10T07:14:32;13.30;;;8.07;;
73575;SDS011;61859;49.204;8.140;2024-01-10T07:16:58;15.03;;;9.37;;
73575;SDS011;61859;49.204;8.140;2024-01-10T07:19:23;16.87;;;8.70;;
73575;SDS011;61859;49.204;8.140;2024-01-10T07:21:49;15.23;;;8.40;;
73575;SDS011;61859;49.204;8.140;2024-01-10T07:24:15;17.23;;;9.37;;
73575;SDS011;61859;49.204;8.140;2024-01-10T07:26:40;16.77;;;9.17;;
73575;SDS011;61859;49.204;8.140;2024-01-10T07:29:06;18.20;;;9.27;;
73575;SDS011;61859;49.204;8.140;2024-01-10T07:31:33;19.10;;;9.10;;
73575;SDS011;61859;49.204;8.140;2024-01-10T07:34:02;17.57;;;8.70;;
73575;SDS011;61859;49.204;8.140;2024-01-10T07:36:31;14.37;;;8.27;;
73575;SDS011;61859;49.204;8.140;2024-01-10T07:38:58;17.63;;;10.07;;
73575;SDS011;61859;49.204;8.140;2024-01-10T07:41:25;14.87;;;8.63;;
73575;SDS011;61859;49.204;8.140;2024-01-10T07:43:50;18.53;;;10.83;;
73575;SDS011;61859;49.204;8.140;2024-01-10T07:46:16;24.67;;;12.50;;
73575;SDS011;61859;49.204;8.140;2024-01-10T07:48:42;33.00;;;16.73;;
73575;SDS011;61859;49.204;8.140;2024-01-10T07:51:07;30.77;;;16.43;;
73575;SDS011;61859;49.204;8.140;2024-01-10T07:53:33;19.37;;;12.47;;
73575;SDS011;61859;49.204;8.140;2024-01-10T07:55:59;17.40;;;10.13;;
73575;SDS011;61859;49.204;8.140;2024-01-10T07:58:24;18.27;;;10.07;;
73575;SDS011;61859;49.204;8.140;2024-01-10T08:00:50;21.50;;;11.10;;
73575;SDS011;61859;49.204;8.140;2024-01-10T08:03:16;18.47;;;10.00;;
73575;SDS011;61859;49.204;8.140;2024-01-10T08:05:41;22.13;;;14.63;;
73575;SDS011;61859;49.204;8.140;2024-01-10T08:08:07;19.40;;;10.53;;
73575;SDS011;61859;49.204;8.140;2024-01-10T08:10:34;18.97;;;9.23;;
73575;SDS011;61859;49.204;8.140;2024-01-10T08:12:59;17.07;;;9.07;;
73575;SDS011;61859;49.204;8.140;2024-01-10T08:15:25;15.50;;;8.80;;
73575;SDS011;61859;49.204;8.140;2024-01-10T08:17:51;17.90;;;9.37;;
73575;SDS011;61859;49.204;8.140;2024-01-10T08:20:17;16.67;;;8.70;;
73575;SDS011;61859;49.204;8.140;2024-01-10T08:22:45;24.07;;;8.87;;
73575;SDS011;61859;49.204;8.140;2024-01-10T08:25:12;13.83;;;8.63;;
73575;SDS011;61859;49.204;8.140;2024-01-10T08:27:38;15.37;;;8.93;;
73575;SDS011;61859;49.204;8.140;2024-01-10T08:30:04;20.97;;;11.43;;
73575;SDS011;61859;49.204;8.140;2024-01-10T08:32:30;23.67;;;12.37;;
73575;SDS011;61859;49.204;8.140;2024-01-10T08:34:55;24.87;;;13.53;;
73575;SDS011;61859;49.204;8.140;2024-01-10T08:37:21;19.97;;;10.53;;
73575;SDS011;61859;49.204;8.140;2024-01-10T08:39:46;16.63;;;9.43;;
73575;SDS011;61859;49.204;8.140;2024-01-10T08:42:12;15.83;;;9.03;;
73575;SDS011;61859;49.204;8.140;2024-01-10T08:44:38;17.47;;;9.03;;
73575;SDS011;61859;49.204;8.140;2024-01-10T08:47:03;17.47;;;9.93;;
73575;SDS011;61859;49.204;8.140;2024-01-10T08:49:29;16.40;;;8.73;;
73575;SDS011;61859;49.204;8.140;2024-01-10T08:51:54;15.13;;;8.67;;
73575;SDS011;61859;49.204;8.140;2024-01-10T08:54:20;21.83;;;13.30;;
73575;SDS011;61859;49.204;8.140;2024-01-10T08:56:47;16.63;;;10.30;;
73575;SDS011;61859;49.204;8.140;2024-01-10T08:59:13;16.47;;;9.90;;
73575;SDS011;61859;49.204;8.140;2024-01-10T09:01:39;15.83;;;8.93;;
73575;SDS011;61859;49.204;8.140;2024-01-10T09:04:05;24.13;;;12.03;;
73575;SDS011;61859;49.204;8.140;2024-01-10T09:06:31;19.03;;;10.03;;
73575;SDS011;61859;49.204;8.140;2024-01-10T09:08:57;16.40;;;9.27;;
73575;SDS011;61859;49.204;8.140;2024-01-10T09:11:23;17.53;;;9.57;;
73575;SDS011;61859;49.204;8.140;2024-01-10T09:13:49;17.93;;;9.07;;
73575;SDS011;61859;49.204;8.140;2024-01-10T09:16:16;15.80;;;8.97;;
73575;SDS011;61859;49.204;8.140;2024-01-10T09:18:42;17.40;;;9.43;;
73575;SDS011;61859;49.204;8.140;2024-01-10T09:21:07;17.90;;;9.07;;
73575;SDS011;61859;49.204;8.140;2024-01-10T09:23:33;18.43;;;9.30;;
73575;SDS011;61859;49.204;8.140;2024-01-10T09:25:58;14.97;;;8.73;;
73575;SDS011;61859;49.204;8.140;2024-01-10T09:28:24;18.47;;;10.60;;
73575;SDS011;61859;49.204;8.140;2024-01-10T09:30:51;18.40;;;9.17;;
73575;SDS011;61859;49.204;8.140;2024-01-10T09:33:16;30.30;;;17.13;;
73575;SDS011;61859;49.204;8.140;2024-01-10T09:35:42;16.67;;;9.23;;
73575;SDS011;61859;49.204;8.140;2024-01-10T09:38:08;20.80;;;11.10;;
73575;SDS011;61859;49.204;8.140;2024-01-10T09:40:33;19.60;;;9.57;;
73575;SDS011;61859;49.204;8.140;2024-01-10T09:42:59;15.77;;;8.77;;
73575;SDS011;61859;49.204;8.140;2024-01-10T09:45:25;17.03;;;8.83;;
73575;SDS011;61859;49.204;8.140;2024-01-10T09:47:52;19.47;;;9.33;;
73575;SDS011;61859;49.204;8.140;2024-01-10T09:50:21;17.23;;;8.77;;
73575;SDS011;61859;49.204;8.140;2024-01-10T09:52:51;18.03;;;9.57;;
73575;SDS011;61859;49.204;8.140;2024-01-10T09:55:19;14.07;;;8.57;;
73575;SDS011;61859;49.204;8.140;2024-01-10T09:57:46;13.20;;;8.03;;
73575;SDS011;61859;49.204;8.140;2024-01-10T10:00:12;14.30;;;7.80;;
73575;SDS011;61859;49.204;8.140;2024-01-10T10:02:40;14.40;;;8.43;;
73575;SDS011;61859;49.204;8.140;2024-01-10T10:05:14;16.63;;;9.03;;
73575;SDS011;61859;49.204;8.140;2024-01-10T10:10:12;14.50;;;8.97;;
73575;SDS011;61859;49.204;8.140;2024-01-10T10:12:46;17.33;;;9.70;;
73575;SDS011;61859;49.204;8.140;2024-01-10T10:15:14;18.37;;;9.00;;
73575;SDS011;61859;49.204;8.140;2024-01-10T10:17:42;19.00;;;9.63;;
73575;SDS011;61859;49.204;8.140;2024-01-10T10:20:20;15.30;;;9.20;;
73575;SDS011;61859;49.204;8.140;2024-01-10T10:23:02;15.77;;;8.73;;
73575;SDS011;61859;49.204;8.140;2024-01-10T10:25:49;16.17;;;9.77;;
73575;SDS011;61859;49.204;8.140;2024-01-10T10:28:15;14.97;;;8.17;;
73575;SDS011;61859;49.204;8.140;2024-01-10T10:30:41;14.33;;;8.97;;
73575;SDS011;61859;49.204;8.140;2024-01-10T10:33:07;14.80;;;8.77;;
73575;SDS011;61859;49.204;8.140;2024-01-10T10:35:33;14.73;;;9.27;;
73575;SDS011;61859;49.204;8.140;2024-01-10T10:37:59;16.80;;;9.53;;
73575;SDS011;61859;49.204;8.140;2024-01-10T10:40:25;16.73;;;8.77;;
73575;SDS011;61859;49.204;8.140;2024-01-10T10:42:54;17.60;;;9.20;;
73575;SDS011;61859;49.204;8.140;2024-01-10T10:45:21;15.27;;;9.00;;
73575;SDS011;61859;49.204;8.140;2024-01-10T10:47:50;13.83;;;8.70;;
73575;SDS011;61859;49.204;8.140;2024-01-10T10:50:23;15.27;;;8.43;;
73575;SDS011;61859;49.204;8.140;2024-01-10T10:52:49;19.40;;;9.63;;
73575;SDS011;61859;49.204;8.140;2024-01-10T10:55:16;16.27;;;9.13;;
73575;SDS011;61859;49.204;8.140;2024-01-10T10:57:46;15.93;;;8.50;;
73575;SDS011;61859;49.204;8.140;2024-01-10T11:00:14;18.30;;;10.07;;
73575;SDS011;61859;49.204;8.140;2024-01-10T11:02:41;20.03;;;9.13;;
73575;SDS011;61859;49.204;8.140;2024-01-10T11:05:09;15.77;;;9.03;;
73575;SDS011;61859;49.204;8.140;2024-01-10T11:07:35;16.23;;;9.23;;
73575;SDS011;61859;49.204;8.140;2024-01-10T11:10:02;14.70;;;9.07;;
73575;SDS011;61859;49.204;8.140;2024-01-10T11:12:52;15.70;;;8.93;;
73575;SDS011;61859;49.204;8.140;2024-01-10T11:18:46;13.57;;;8.40;;
73575;SDS011;61859;49.204;8.140;2024-01-10T11:24:10;16.40;;;9.50;;
73575;SDS011;61859;49.204;8.140;2024-01-10T11:26:37;16.07;;;9.90;;
73575;SDS011;61859;49.204;8.140;2024-01-10T11:29:04;15.60;;;9.67;;
73575;SDS011;61859;49.204;8.140;2024-01-10T11:31:30;17.37;;;9.57;;
73575;SDS011;61859;49.204;8.140;2024-01-10T11:33:57;20.10;;;9.60;;
73575;SDS011;61859;49.204;8.140;2024-01-10T11:36:25;16.83;;;9.23;;
73575;SDS011;61859;49.204;8.140;2024-01-10T11:41:25;16.60;;;9.77;;
73575;SDS011;61859;49.204;8.140;2024-01-10T11:46:42;17.93;;;11.57;;
73575;SDS011;61859;49.204;8.140;2024-01-10T11:49:10;17.27;;;10.23;;
73575;SDS011;61859;49.204;8.140;2024-01-10T11:51:38;17.60;;;9.93;;
73575;SDS011;61859;49.204;8.140;2024-01-10T11:54:06;18.83;;;11.73;;
73575;SDS011;61859;49.204;8.140;2024-01-10T11:56:42;18.33;;;10.43;;
73575;SDS011;61859;49.204;8.140;2024-01-10T11:59:09;19.73;;;11.33;;
73575;SDS011;61859;49.204;8.140;2024-01-10T12:01:39;21.90;;;12.73;;
73575;SDS011;61859;49.204;8.140;2024-01-10T12:04:06;18.73;;;10.20;;
73575;SDS011;61859;49.204;8.140;2024-01-10T12:06:32;17.37;;;10.63;;
73575;SDS011;61859;49.204;8.140;2024-01-10T12:09:01;15.50;;;9.50;;
73575;SDS011;61859;49.204;8.140;2024-01-10T12:11:36;23.13;;;14.60;;
73575;SDS011;61859;49.204;8.140;2024-01-10T12:14:04;18.13;;;10.53;;
73575;SDS011;61859;49.204;8.140;2024-01-10T12:16:30;16.90;;;9.73;;
73575;SDS011;61859;49.204;8.140;2024-01-10T12:18:57;16.47;;;11.00;;
73575;SDS011;61859;49.204;8.140;2024-01-10T12:21:23;14.50;;;9.37;;
73575;SDS011;61859;49.204;8.140;2024-01-10T12:23:48;15.60;;;9.67;;
73575;SDS011;61859;49.204;8.140;2024-01-10T12:26:16;14.70;;;8.73;;
73575;SDS011;61859;49.204;8.140;2024-01-10T12:28:42;15.57;;;9.43;;
73575;SDS011;61859;49.204;8.140;2024-01-10T12:31:19;17.30;;;9.57;;
73575;SDS011;61859;49.204;8.140;2024-01-10T12:33:47;18.17;;;9.97;;
73575;SDS011;61859;49.204;8.140;2024-01-10T12:36:13;16.73;;;9.70;;
73575;SDS011;61859;49.204;8.140;2024-01-10T12:38:41;14.83;;;9.70;;
73575;SDS011;61859;49.204;8.140;2024-01-10T12:41:08;13.73;;;9.13;;
73575;SDS011;61859;49.204;8.140;2024-01-10T12:43:34;14.77;;;9.20;;
73575;SDS011;61859;49.204;8.140;2024-01-10T12:46:12;15.73;;;9.70;;
73575;SDS011;61859;49.204;8.140;2024-01-10T12:48:38;13.67;;;8.93;;
73575;SDS011;61859;49.204;8.140;2024-01-10T12:51:11;15.57;;;10.07;;
73575;SDS011;61859;49.204;8.140;2024-01-10T12:53:38;13.87;;;9.00;;
73575;SDS011;61859;49.204;8.140;2024-01-10T12:56:06;15.23;;;10.00;;
73575;SDS011;61859;49.204;8.140;2024-01-10T12:58:33;14.60;;;9.63;;
73575;SDS011;61859;49.204;8.140;2024-01-10T13:01:01;14.00;;;10.13;;
73575;SDS011;61859;49.204;8.140;2024-01-10T13:03:28;13.70;;;9.33;;
73575;SDS011;61859;49.204;8.140;2024-01-10T13:05:54;12.10;;;8.63;;
73575;SDS011;61859;49.204;8.140;2024-01-10T13:08:20;15.93;;;8.93;;
73575;SDS011;61859;49.204;8.140;2024-01-10T13:10:46;12.17;;;8.63;;
73575;SDS011;61859;49.204;8.140;2024-01-10T13:13:12;12.53;;;8.90;;
73575;SDS011;61859;49.204;8.140;2024-01-10T13:15:38;12.93;;;9.00;;
73575;SDS011;61859;49.204;8.140;2024-01-10T13:18:04;14.63;;;9.13;;
73575;SDS011;61859;49.204;8.140;2024-01-10T13:20:30;14.17;;;9.97;;
73575;SDS011;61859;49.204;8.140;2024-01-10T13:22:55;12.87;;;9.03;;
73575;SDS011;61859;49.204;8.140;2024-01-10T13:25:21;14.93;;;9.17;;
73575;SDS011;61859;49.204;8.140;2024-01-10T13:27:49;13.70;;;9.37;;
73575;SDS011;61859;49.204;8.140;2024-01-10T13:30:16;16.23;;;9.87;;
73575;SDS011;61859;49.204;8.140;2024-01-10T13:32:42;12.90;;;8.80;;
73575;SDS011;61859;49.204;8.140;2024-01-10T13:35:08;14.40;;;9.63;;
73575;SDS011;61859;49.204;8.140;2024-01-10T13:37:34;16.47;;;9.70;;
73575;SDS011;61859;49.204;8.140;2024-01-10T13:39:59;14.53;;;9.57;;
73575;SDS011;61859;49.204;8.140;2024-01-10T13:42:25;16.43;;;10.20;;
73575;SDS011;61859;49.204;8.140;2024-01-10T13:44:50;15.53;;;9.30;;
73575;SDS011;61859;49.204;8.140;2024-01-10T13:47:20;12.53;;;8.90;;
73575;SDS011;61859;49.204;8.140;2024-01-10T13:49:48;14.73;;;9.33;;
73575;SDS011;61859;49.204;8.140;2024-01-10T13:52:14;14.60;;;8.90;;
73575;SDS011;61859;49.204;8.140;2024-01-10T13:54:39;17.07;;;9.37;;
73575;SDS011;61859;49.204;8.140;2024-01-10T13:57:05;14.03;;;9.43;;
73575;SDS011;61859;49.204;8.140;2024-01-10T13:59:31;14.33;;;9.77;;
73575;SDS011;61859;49.204;8.140;2024-01-10T14:01:57;13.80;;;9.60;;
73575;SDS011;61859;49.204;8.140;2024-01-10T14:04:24;19.57;;;10.30;;
73575;SDS011;61859;49.204;8.140;2024-01-10T14:06:50;17.07;;;9.63;;
73575;SDS011;61859;49.204;8.140;2024-01-10T14:09:15;15.27;;;9.63;;
73575;SDS011;61859;49.204;8.140;2024-01-10T14:11:42;15.50;;;9.87;;
73575;SDS011;61859;49.204;8.140;2024-01-10T14:14:09;14.87;;;9.37;;
73575;SDS011;61859;49.204;8.140;2024-01-10T14:16:35;13.90;;;9.00;;
73575;SDS011;61859;49.204;8.140;2024-01-10T14:19:00;16.27;;;10.00;;
73575;SDS011;61859;49.204;8.140;2024-01-10T14:21:26;18.80;;;11.07;;
73575;SDS011;61859;49.204;8.140;2024-01-10T14:23:52;16.23;;;9.77;;
73575;SDS011;61859;49.204;8.140;2024-01-10T14:26:17;16.43;;;10.10;;
73575;SDS011;61859;49.204;8.140;2024-01-10T14:28:43;16.37;;;10.10;;
73575;SDS011;61859;49.204;8.140;2024-01-10T14:31:08;15.60;;;9.73;;
73575;SDS011;61859;49.204;8.140;2024-01-10T14:33:38;16.37;;;9.67;;
73575;SDS011;61859;49.204;8.140;2024-01-10T14:36:04;15.30;;;9.83;;
73575;SDS011;61859;49.204;8.140;2024-01-10T14:38:30;14.07;;;9.60;;
73575;SDS011;61859;49.204;8.140;2024-01-10T14:40:55;13.97;;;9.33;;
73575;SDS011;61859;49.204;8.140;2024-01-10T14:43:21;17.83;;;10.47;;